Time;durP1;ratioP1;P1;durP2;ratioP2;P2;SDS_P1;SDS_P2;PMS_P1;PMS_P2;Temp;Humidity;BMP_temperature;BMP_pressure;BME280_temperature;BME280_humidity;BME280_pressure;Samples;Min_cycle;Max_cycle;Signal;HPM_P1;HPM_P2
2022/09/18 00:00:44;;;;;;;2.60;1.90;;;;;;;;;;4888997;29;20184;-43
2022/09/18 00:03:11;;;;;;;2.50;1.60;;;;;;;;;;4888281;29;20299;-42
2022/09/18 00:05:37;;;;;;;3.10;1.70;;;;;;;;;;4887125;29;20245;-43
2022/09/18 00:08:03;;;;;;;2.23;1.80;;;;;;;;;;4889229;29;20275;-43
2022/09/18 00:10:30;;;;;;;3.40;1.30;;;;;;;;;;4885853;29;20344;-43
2022/09/18 00:12:56;;;;;;;4.20;1.77;;;;;;;;;;4888365;29;20223;-43
2022/09/18 00:15:22;;;;;;;5.00;1.60;;;;;;;;;;4882694;29;20307;-43
2022/09/18 00:17:48;;;;;;;2.13;1.50;;;;;;;;;;4886463;29;20200;-43
2022/09/18 00:20:14;;;;;;;2.50;1.50;;;;;;;;;;4887509;29;20184;-43
2022/09/18 00:22:40;;;;;;;2.77;1.60;;;;;;;;;;4887779;29;20176;-43
2022/09/18 00:25:07;;;;;;;3.13;1.60;;;;;;;;;;4890260;29;20579;-43
2022/09/18 00:27:33;;;;;;;2.27;1.60;;;;;;;;;;4893240;29;20494;-43
2022/09/18 00:29:59;;;;;;;2.83;1.90;;;;;;;;;;4890500;29;20180;-43
2022/09/18 00:32:25;;;;;;;2.10;1.20;;;;;;;;;;4891465;29;20691;-43
2022/09/18 00:34:51;;;;;;;2.60;1.43;;;;;;;;;;4888577;29;20926;-43
2022/09/18 00:37:17;;;;;;;2.23;1.40;;;;;;;;;;4889297;29;20405;-43
2022/09/18 00:39:44;;;;;;;2.30;1.57;;;;;;;;;;4890760;29;20518;-43
2022/09/18 00:42:13;;;;;;;4.10;1.73;;;;;;;;;;4887451;29;20760;-43
2022/09/18 00:44:44;;;;;;;4.50;1.80;;;;;;;;;;4887685;29;21650;-43
2022/09/18 00:47:10;;;;;;;2.43;1.60;;;;;;;;;;4891287;29;20185;-43
2022/09/18 00:49:38;;;;;;;2.10;1.53;;;;;;;;;;4892783;29;20555;-43
2022/09/18 00:52:04;;;;;;;2.93;1.57;;;;;;;;;;4884660;29;20187;-43
2022/09/18 00:54:35;;;;;;;4.27;1.50;;;;;;;;;;4887107;29;20184;-42
2022/09/18 00:57:04;;;;;;;5.60;1.40;;;;;;;;;;4889552;29;20207;-43
2022/09/18 00:59:32;;;;;;;1.70;1.30;;;;;;;;;;4890451;29;20187;-43
2022/09/18 01:01:59;;;;;;;3.90;1.47;;;;;;;;;;4889401;28;20204;-41
2022/09/18 01:04:25;;;;;;;2.23;1.00;;;;;;;;;;4888435;28;20652;-43
2022/09/18 01:06:55;;;;;;;1.30;1.20;;;;;;;;;;4886382;29;20494;-43
2022/09/18 01:09:21;;;;;;;1.40;1.30;;;;;;;;;;4889116;29;20188;-43
2022/09/18 01:11:55;;;;;;;2.77;1.30;;;;;;;;;;4889219;29;20724;-43
2022/09/18 01:14:36;;;;;;;3.03;1.10;;;;;;;;;;4889109;29;20577;-43
2022/09/18 01:17:07;;;;;;;2.97;1.30;;;;;;;;;;4882038;29;20200;-43
2022/09/18 01:19:33;;;;;;;4.43;1.73;;;;;;;;;;4886880;29;20672;-43
2022/09/18 01:22:04;;;;;;;4.03;1.33;;;;;;;;;;4890367;29;20176;-43
2022/09/18 01:24:42;;;;;;;2.53;1.30;;;;;;;;;;4886509;29;20486;-43
2022/09/18 01:27:28;;;;;;;3.77;1.40;;;;;;;;;;4888414;29;20188;-43
2022/09/18 01:30:04;;;;;;;6.60;1.93;;;;;;;;;;4904590;28;20207;-43
2022/09/18 01:32:33;;;;;;;2.27;1.40;;;;;;;;;;4889832;29;21202;-43
2022/09/18 01:35:08;;;;;;;3.87;1.50;;;;;;;;;;4888915;29;21167;-43
2022/09/18 01:37:44;;;;;;;4.03;1.60;;;;;;;;;;4888198;28;20200;-43
2022/09/18 01:40:20;;;;;;;4.27;1.30;;;;;;;;;;4884167;29;20454;-43
2022/09/18 01:42:48;;;;;;;5.17;1.40;;;;;;;;;;4886639;29;20184;-43
2022/09/18 01:45:18;;;;;;;4.37;1.30;;;;;;;;;;4885338;29;20173;-43
2022/09/18 01:47:47;;;;;;;3.07;1.30;;;;;;;;;;4885328;29;20728;-43
2022/09/18 01:50:14;;;;;;;3.20;1.20;;;;;;;;;;4886369;29;20869;-43
2022/09/18 01:52:49;;;;;;;1.67;1.30;;;;;;;;;;4887056;29;20187;-42
2022/09/18 01:55:18;;;;;;;2.90;1.37;;;;;;;;;;4889765;29;20180;-43
2022/09/18 01:57:57;;;;;;;1.23;1.13;;;;;;;;;;4888856;29;20448;-43
2022/09/18 02:00:24;;;;;;;3.57;1.70;;;;;;;;;;4887298;29;20513;-42
2022/09/18 02:02:50;;;;;;;1.93;1.40;;;;;;;;;;4883032;29;20180;-43
2022/09/18 02:05:24;;;;;;;1.40;1.30;;;;;;;;;;4885187;29;20188;-42
2022/09/18 02:07:58;;;;;;;1.60;1.13;;;;;;;;;;4887097;29;21395;-43
2022/09/18 02:10:25;;;;;;;2.43;1.20;;;;;;;;;;4886659;29;22608;-43
2022/09/18 02:12:52;;;;;;;2.50;1.10;;;;;;;;;;4885155;28;20544;-43
2022/09/18 02:15:18;;;;;;;1.50;1.10;;;;;;;;;;4879918;29;20223;-43
2022/09/18 02:17:58;;;;;;;3.97;1.13;;;;;;;;;;4884963;28;20412;-43
2022/09/18 02:20:26;;;;;;;1.60;1.00;;;;;;;;;;4885756;29;20186;-43
2022/09/18 02:22:53;;;;;;;3.57;1.30;;;;;;;;;;4891267;29;20952;-43
2022/09/18 02:25:26;;;;;;;1.43;1.13;;;;;;;;;;4883816;29;20644;-43
2022/09/18 02:27:53;;;;;;;0.90;0.90;;;;;;;;;;4883707;29;20484;-42
2022/09/18 02:30:22;;;;;;;2.10;1.20;;;;;;;;;;4883753;29;20287;-41
2022/09/18 02:32:53;;;;;;;1.20;1.10;;;;;;;;;;4890072;29;20505;-42
2022/09/18 02:35:19;;;;;;;1.33;1.10;;;;;;;;;;4888771;29;20215;-43
2022/09/18 02:37:45;;;;;;;1.37;0.80;;;;;;;;;;4886608;29;20456;-43
2022/09/18 02:40:21;;;;;;;1.10;1.00;;;;;;;;;;4886938;29;20566;-43
2022/09/18 02:42:52;;;;;;;5.27;1.03;;;;;;;;;;4888780;29;20184;-43
2022/09/18 02:45:27;;;;;;;0.87;0.80;;;;;;;;;;4885535;29;20914;-43
2022/09/18 02:48:05;;;;;;;1.87;1.00;;;;;;;;;;4883596;29;20671;-43
2022/09/18 02:50:41;;;;;;;2.93;1.00;;;;;;;;;;4884199;29;20761;-43
2022/09/18 02:53:30;;;;;;;1.53;0.90;;;;;;;;;;4887411;29;20405;-43
2022/09/18 02:56:01;;;;;;;1.07;1.03;;;;;;;;;;4892126;29;20724;-42
2022/09/18 02:58:30;;;;;;;1.47;1.10;;;;;;;;;;4886087;29;20388;-43
2022/09/18 03:00:58;;;;;;;1.47;1.17;;;;;;;;;;4883873;29;20230;-43
2022/09/18 03:03:29;;;;;;;2.67;1.00;;;;;;;;;;4885117;29;20507;-43
2022/09/18 03:05:56;;;;;;;1.40;1.07;;;;;;;;;;4889472;29;20693;-43
2022/09/18 03:08:22;;;;;;;1.20;1.00;;;;;;;;;;4889234;29;20478;-41
2022/09/18 03:10:48;;;;;;;1.10;1.00;;;;;;;;;;4883798;29;20749;-43
2022/09/18 03:13:15;;;;;;;1.40;1.30;;;;;;;;;;4884600;29;20235;-42
2022/09/18 03:15:41;;;;;;;1.80;1.10;;;;;;;;;;4887447;29;20191;-43
2022/09/18 03:18:07;;;;;;;1.73;1.20;;;;;;;;;;4884109;29;20284;-43
2022/09/18 03:20:33;;;;;;;1.50;1.20;;;;;;;;;;4880743;29;20518;-43
2022/09/18 03:22:59;;;;;;;3.50;1.27;;;;;;;;;;4887961;29;20299;-43
2022/09/18 03:25:25;;;;;;;1.87;1.47;;;;;;;;;;4887500;29;20948;-42
2022/09/18 03:27:55;;;;;;;4.00;1.40;;;;;;;;;;4886675;29;20491;-43
2022/09/18 03:30:21;;;;;;;1.67;1.33;;;;;;;;;;4884366;29;20181;-42
2022/09/18 03:32:47;;;;;;;1.67;1.10;;;;;;;;;;4885486;29;20271;-43
2022/09/18 03:35:13;;;;;;;0.80;0.80;;;;;;;;;;4888519;29;20180;-42
2022/09/18 03:37:39;;;;;;;3.57;1.10;;;;;;;;;;4891985;29;20532;-43
2022/09/18 03:40:06;;;;;;;1.73;1.00;;;;;;;;;;4892577;29;20688;-41
2022/09/18 03:42:32;;;;;;;2.97;1.07;;;;;;;;;;4887993;29;20513;-41
2022/09/18 03:44:58;;;;;;;2.20;1.10;;;;;;;;;;4883035;29;20728;-43
2022/09/18 03:47:25;;;;;;;2.10;1.00;;;;;;;;;;4888608;29;20570;-43
2022/09/18 03:49:51;;;;;;;2.37;1.20;;;;;;;;;;4890638;29;20176;-43
2022/09/18 03:52:18;;;;;;;3.17;1.20;;;;;;;;;;4890960;29;20617;-43
2022/09/18 03:54:44;;;;;;;2.97;1.20;;;;;;;;;;4887741;29;20188;-43
2022/09/18 03:57:10;;;;;;;2.13;1.50;;;;;;;;;;4888784;29;20736;-42
2022/09/18 03:59:36;;;;;;;3.07;1.30;;;;;;;;;;4890833;29;20270;-43
2022/09/18 04:02:02;;;;;;;2.17;1.00;;;;;;;;;;4891984;29;20184;-43
2022/09/18 04:04:28;;;;;;;1.10;1.00;;;;;;;;;;4885354;29;20189;-43
2022/09/18 04:06:54;;;;;;;2.13;1.10;;;;;;;;;;4888306;29;20661;-43
2022/09/18 04:09:20;;;;;;;1.13;1.03;;;;;;;;;;4887215;29;20769;-43
2022/09/18 04:11:46;;;;;;;1.33;1.03;;;;;;;;;;4890566;29;20311;-43
2022/09/18 04:14:13;;;;;;;2.00;1.00;;;;;;;;;;4891524;29;20184;-43
2022/09/18 04:16:39;;;;;;;1.00;1.00;;;;;;;;;;4885596;29;20186;-43
2022/09/18 04:19:05;;;;;;;2.43;1.10;;;;;;;;;;4882085;29;20208;-42
2022/09/18 04:21:31;;;;;;;0.97;0.90;;;;;;;;;;4884079;29;20606;-43
2022/09/18 04:23:58;;;;;;;2.03;1.10;;;;;;;;;;4885752;29;20180;-43
2022/09/18 04:26:25;;;;;;;2.03;1.20;;;;;;;;;;4887854;29;20176;-43
2022/09/18 04:28:51;;;;;;;2.57;1.30;;;;;;;;;;4888453;29;20479;-42
2022/09/18 04:31:18;;;;;;;1.30;1.20;;;;;;;;;;4887780;29;20538;-43
2022/09/18 04:33:44;;;;;;;2.10;1.30;;;;;;;;;;4885874;29;20187;-43
2022/09/18 04:36:10;;;;;;;2.70;1.40;;;;;;;;;;4884544;29;20682;-43
2022/09/18 04:38:37;;;;;;;1.67;1.50;;;;;;;;;;4889061;29;20712;-43
2022/09/18 04:41:03;;;;;;;2.03;1.17;;;;;;;;;;4886425;29;20176;-43
2022/09/18 04:43:29;;;;;;;1.80;1.20;;;;;;;;;;4884811;29;20523;-43
2022/09/18 04:45:55;;;;;;;2.97;1.30;;;;;;;;;;4886728;29;20185;-43
2022/09/18 04:48:21;;;;;;;2.17;1.40;;;;;;;;;;4886257;29;20188;-43
2022/09/18 04:50:48;;;;;;;1.90;1.50;;;;;;;;;;4889870;29;20448;-43
2022/09/18 04:53:14;;;;;;;3.00;1.60;;;;;;;;;;4887212;28;20195;-42
2022/09/18 04:55:43;;;;;;;1.57;1.30;;;;;;;;;;4887699;29;20756;-43
2022/09/18 04:58:09;;;;;;;2.10;1.40;;;;;;;;;;4886625;29;20288;-43
2022/09/18 05:00:37;;;;;;;2.50;1.40;;;;;;;;;;4888364;29;20184;-43
2022/09/18 05:03:03;;;;;;;3.00;1.67;;;;;;;;;;4889616;29;20231;-43
2022/09/18 05:05:29;;;;;;;2.33;1.50;;;;;;;;;;4889783;29;20888;-43
2022/09/18 05:07:59;;;;;;;3.50;1.90;;;;;;;;;;4887587;29;20672;-43
2022/09/18 05:10:25;;;;;;;6.10;1.70;;;;;;;;;;4885496;29;20184;-43
2022/09/18 05:12:53;;;;;;;2.73;1.50;;;;;;;;;;4886902;29;20404;-43
2022/09/18 05:15:19;;;;;;;3.53;1.87;;;;;;;;;;4885047;29;20276;-43
2022/09/18 05:17:45;;;;;;;4.07;2.00;;;;;;;;;;4886146;29;20214;-41
2022/09/18 05:20:12;;;;;;;1.97;1.60;;;;;;;;;;4888389;29;20221;-43
2022/09/18 05:22:38;;;;;;;1.60;1.50;;;;;;;;;;4888360;29;20211;-43
2022/09/18 05:25:05;;;;;;;2.53;1.30;;;;;;;;;;4885841;29;20224;-43
2022/09/18 05:27:31;;;;;;;3.07;1.40;;;;;;;;;;4888321;29;20424;-43
2022/09/18 05:29:57;;;;;;;2.00;1.40;;;;;;;;;;4891510;29;20235;-43
2022/09/18 05:32:24;;;;;;;3.03;1.20;;;;;;;;;;4889594;29;20515;-43
2022/09/18 05:34:50;;;;;;;1.00;0.90;;;;;;;;;;4887511;29;20189;-42
2022/09/18 05:37:19;;;;;;;1.33;0.97;;;;;;;;;;4887797;29;20219;-43
2022/09/18 05:39:45;;;;;;;3.03;1.00;;;;;;;;;;4890465;29;20267;-43
2022/09/18 05:42:11;;;;;;;2.17;0.80;;;;;;;;;;4888275;29;20185;-43
2022/09/18 05:44:37;;;;;;;1.30;1.20;;;;;;;;;;4881646;29;20184;-43
2022/09/18 05:47:03;;;;;;;1.20;1.07;;;;;;;;;;4880900;29;20192;-43
2022/09/18 05:49:29;;;;;;;1.87;0.90;;;;;;;;;;4885460;29;21243;-43
2022/09/18 05:51:55;;;;;;;3.03;0.90;;;;;;;;;;4887568;29;20737;-43
2022/09/18 05:54:22;;;;;;;2.03;1.00;;;;;;;;;;4887282;28;20931;-43
2022/09/18 05:56:48;;;;;;;1.10;0.93;;;;;;;;;;4911827;28;20579;-41
2022/09/18 05:59:14;;;;;;;1.17;1.07;;;;;;;;;;4883802;29;20207;-43
2022/09/18 06:01:40;;;;;;;1.40;1.20;;;;;;;;;;4888055;29;20517;-43
2022/09/18 06:04:06;;;;;;;1.00;0.83;;;;;;;;;;4884013;29;20177;-43
2022/09/18 06:06:32;;;;;;;1.50;1.13;;;;;;;;;;4883684;29;20533;-43
2022/09/18 06:08:58;;;;;;;2.43;1.07;;;;;;;;;;4885427;29;20507;-41
2022/09/18 06:11:24;;;;;;;1.63;1.00;;;;;;;;;;4885270;29;20896;-43
2022/09/18 06:13:51;;;;;;;1.27;1.17;;;;;;;;;;4883018;29;20201;-42
2022/09/18 06:16:18;;;;;;;4.20;1.30;;;;;;;;;;4876589;29;20527;-44
2022/09/18 06:18:44;;;;;;;3.00;1.13;;;;;;;;;;4875905;29;20280;-43
2022/09/18 06:21:13;;;;;;;2.57;1.27;;;;;;;;;;4881459;29;20482;-42
2022/09/18 06:23:40;;;;;;;2.30;1.17;;;;;;;;;;4884558;29;20404;-43
2022/09/18 06:26:06;;;;;;;2.93;1.30;;;;;;;;;;4886358;29;20184;-43
2022/09/18 06:28:33;;;;;;;1.87;1.27;;;;;;;;;;4886747;29;20586;-42
2022/09/18 06:31:00;;;;;;;6.57;1.40;;;;;;;;;;4884916;29;20188;-43
2022/09/18 06:33:28;;;;;;;4.37;1.40;;;;;;;;;;4886359;29;20195;-43
2022/09/18 06:35:54;;;;;;;1.93;1.30;;;;;;;;;;4886505;29;20192;-43
2022/09/18 06:38:20;;;;;;;2.00;1.30;;;;;;;;;;4894502;29;20254;-43
2022/09/18 06:40:50;;;;;;;2.30;1.30;;;;;;;;;;4895257;29;20203;-43
2022/09/18 06:43:17;;;;;;;1.33;1.10;;;;;;;;;;4889630;29;20188;-43
2022/09/18 06:45:43;;;;;;;3.00;1.40;;;;;;;;;;4889677;29;20772;-43
2022/09/18 06:48:09;;;;;;;2.83;1.20;;;;;;;;;;4891554;29;20176;-42
2022/09/18 06:50:35;;;;;;;3.10;1.40;;;;;;;;;;4894548;29;20674;-42
2022/09/18 06:53:05;;;;;;;3.07;1.27;;;;;;;;;;4894623;29;20620;-43
2022/09/18 06:55:31;;;;;;;4.33;1.60;;;;;;;;;;4889168;29;20184;-43
2022/09/18 06:57:58;;;;;;;5.30;1.30;;;;;;;;;;4890048;29;20204;-43
2022/09/18 07:00:25;;;;;;;3.47;1.53;;;;;;;;;;4893587;28;20191;-43
2022/09/18 07:02:58;;;;;;;1.93;1.20;;;;;;;;;;4889279;29;20191;-43
2022/09/18 07:05:28;;;;;;;2.23;1.13;;;;;;;;;;4888109;29;20164;-43
2022/09/18 07:07:54;;;;;;;1.30;1.10;;;;;;;;;;4897979;29;20207;-43
2022/09/18 07:10:21;;;;;;;2.10;1.23;;;;;;;;;;4895986;29;20442;-43
2022/09/18 07:12:47;;;;;;;1.57;1.10;;;;;;;;;;4891512;29;20196;-43
2022/09/18 07:15:18;;;;;;;2.77;1.20;;;;;;;;;;4889824;28;20191;-43
2022/09/18 07:17:44;;;;;;;2.27;1.10;;;;;;;;;;4891167;29;20204;-43
2022/09/18 07:20:11;;;;;;;2.40;1.17;;;;;;;;;;4886453;29;20420;-44
2022/09/18 07:22:38;;;;;;;1.70;1.10;;;;;;;;;;4887980;29;20533;-43
2022/09/18 07:25:04;;;;;;;4.27;1.30;;;;;;;;;;4891237;29;20687;-43
2022/09/18 07:27:30;;;;;;;2.90;1.30;;;;;;;;;;4900355;28;20818;-43
2022/09/18 07:29:57;;;;;;;3.17;1.30;;;;;;;;;;4890663;29;20176;-43
2022/09/18 07:32:23;;;;;;;2.17;1.47;;;;;;;;;;4891109;29;21097;-44
2022/09/18 07:34:49;;;;;;;3.67;1.40;;;;;;;;;;4894315;28;20203;-43
2022/09/18 07:37:16;;;;;;;2.40;1.30;;;;;;;;;;4891586;29;20207;-42
2022/09/18 07:39:43;;;;;;;1.50;1.10;;;;;;;;;;4891535;29;20637;-43
2022/09/18 07:42:09;;;;;;;1.83;0.83;;;;;;;;;;4886501;29;20729;-44
2022/09/18 07:44:36;;;;;;;1.20;1.10;;;;;;;;;;4889218;28;20628;-44
2022/09/18 07:47:02;;;;;;;1.20;1.10;;;;;;;;;;4889618;29;20656;-43
2022/09/18 07:49:28;;;;;;;0.90;0.77;;;;;;;;;;4892090;29;20416;-44
2022/09/18 07:51:54;;;;;;;2.03;0.83;;;;;;;;;;4895516;28;20763;-44
2022/09/18 07:54:20;;;;;;;1.77;0.80;;;;;;;;;;4894381;29;20180;-44
2022/09/18 07:56:46;;;;;;;1.97;0.83;;;;;;;;;;4898260;28;20184;-44
2022/09/18 07:59:12;;;;;;;1.40;0.90;;;;;;;;;;4898326;29;20629;-44
2022/09/18 08:01:38;;;;;;;1.70;0.97;;;;;;;;;;4893592;29;20181;-44
2022/09/18 08:04:05;;;;;;;1.80;0.87;;;;;;;;;;4895857;29;20177;-44
2022/09/18 08:06:31;;;;;;;0.87;0.80;;;;;;;;;;4895420;29;20663;-43
2022/09/18 08:08:58;;;;;;;1.63;0.97;;;;;;;;;;4899427;29;20176;-44
2022/09/18 08:11:24;;;;;;;2.13;1.00;;;;;;;;;;4894372;29;20635;-44
2022/09/18 08:13:50;;;;;;;2.33;0.90;;;;;;;;;;4894665;29;20546;-44
2022/09/18 08:16:16;;;;;;;1.17;0.90;;;;;;;;;;4895995;29;20732;-43
2022/09/18 08:18:42;;;;;;;2.70;0.93;;;;;;;;;;4897992;29;20433;-44
2022/09/18 08:21:08;;;;;;;1.20;1.10;;;;;;;;;;4896615;29;20269;-44
2022/09/18 08:23:35;;;;;;;3.23;0.90;;;;;;;;;;4895838;29;20781;-44
2022/09/18 08:26:01;;;;;;;2.33;1.20;;;;;;;;;;4893767;29;20193;-44
2022/09/18 08:28:28;;;;;;;2.00;1.17;;;;;;;;;;4897647;29;20531;-44
2022/09/18 08:30:54;;;;;;;6.43;1.23;;;;;;;;;;4896504;29;20180;-44
2022/09/18 08:33:20;;;;;;;2.27;1.00;;;;;;;;;;4894660;29;20717;-44
2022/09/18 08:35:46;;;;;;;2.20;1.20;;;;;;;;;;4898980;29;20279;-44
2022/09/18 08:38:12;;;;;;;1.87;1.30;;;;;;;;;;4892962;29;21123;-43
2022/09/18 08:40:41;;;;;;;1.90;1.10;;;;;;;;;;4899317;29;20696;-44
2022/09/18 08:43:26;;;;;;;4.07;1.30;;;;;;;;;;4898873;29;20180;-44
2022/09/18 08:45:55;;;;;;;2.60;1.27;;;;;;;;;;4895484;29;20712;-44
2022/09/18 08:48:27;;;;;;;4.40;1.50;;;;;;;;;;4893065;29;21073;-44
2022/09/18 08:50:56;;;;;;;3.60;1.43;;;;;;;;;;4889862;29;20720;-44
2022/09/18 08:53:25;;;;;;;2.63;1.50;;;;;;;;;;4910354;28;20185;-44
2022/09/18 08:55:53;;;;;;;3.13;1.30;;;;;;;;;;4897553;29;20189;-44
2022/09/18 08:58:25;;;;;;;2.17;1.17;;;;;;;;;;4896794;29;20755;-44
2022/09/18 09:00:58;;;;;;;1.40;1.10;;;;;;;;;;4892003;29;20717;-43
2022/09/18 09:03:24;;;;;;;1.80;1.17;;;;;;;;;;4891771;29;20204;-44
2022/09/18 09:05:52;;;;;;;1.67;1.10;;;;;;;;;;4894342;29;20420;-44
2022/09/18 09:08:27;;;;;;;4.60;1.20;;;;;;;;;;4896871;29;20184;-44
2022/09/18 09:11:00;;;;;;;1.27;1.00;;;;;;;;;;4896762;29;20522;-44
2022/09/18 09:13:29;;;;;;;3.30;1.10;;;;;;;;;;4894187;29;20195;-44
2022/09/18 09:16:23;;;;;;;2.03;0.90;;;;;;;;;;4896945;29;20202;-44
2022/09/18 09:19:02;;;;;;;2.67;0.90;;;;;;;;;;4896160;29;20224;-44
2022/09/18 09:21:47;;;;;;;3.20;1.00;;;;;;;;;;4894638;29;20176;-44
2022/09/18 09:24:25;;;;;;;3.27;1.10;;;;;;;;;;4894482;29;20601;-44
2022/09/18 09:26:52;;;;;;;1.60;0.87;;;;;;;;;;4898071;29;20180;-43
2022/09/18 09:29:28;;;;;;;1.83;1.10;;;;;;;;;;4896994;29;20199;-44
2022/09/18 09:31:58;;;;;;;1.63;1.20;;;;;;;;;;4894099;29;20811;-44
2022/09/18 09:34:27;;;;;;;1.80;1.00;;;;;;;;;;4896204;28;20181;-44
2022/09/18 09:36:56;;;;;;;1.87;0.83;;;;;;;;;;4898564;29;20550;-44
2022/09/18 09:39:22;;;;;;;1.83;0.90;;;;;;;;;;4897939;29;20173;-44
2022/09/18 09:41:53;;;;;;;2.50;1.10;;;;;;;;;;4897576;29;20507;-44
2022/09/18 09:44:31;;;;;;;1.27;0.97;;;;;;;;;;4892839;29;20180;-44
2022/09/18 09:47:22;;;;;;;2.13;0.80;;;;;;;;;;4893061;29;20922;-43
2022/09/18 09:49:59;;;;;;;0.90;0.80;;;;;;;;;;4897437;29;20606;-43
2022/09/18 09:52:27;;;;;;;1.87;0.90;;;;;;;;;;4893169;29;20174;-43
2022/09/18 09:55:13;;;;;;;2.30;0.90;;;;;;;;;;4892952;29;20795;-44
2022/09/18 09:58:15;;;;;;;1.00;0.80;;;;;;;;;;4898406;28;20208;-43
2022/09/18 10:00:47;;;;;;;1.30;0.90;;;;;;;;;;4934028;28;21952;-43
2022/09/18 10:03:25;;;;;;;2.40;0.73;;;;;;;;;;4895894;28;20495;-43
2022/09/18 10:05:58;;;;;;;1.67;0.90;;;;;;;;;;4887228;29;20699;-43
2022/09/18 10:08:41;;;;;;;1.83;1.00;;;;;;;;;;4891051;29;20188;-44
2022/09/18 10:11:11;;;;;;;1.17;0.87;;;;;;;;;;4894088;29;20302;-44
2022/09/18 10:13:39;;;;;;;1.33;0.80;;;;;;;;;;4895710;29;20168;-43
2022/09/18 10:16:09;;;;;;;1.83;0.90;;;;;;;;;;4891129;29;20176;-43
2022/09/18 10:18:38;;;;;;;0.87;0.67;;;;;;;;;;4896485;29;20192;-44
2022/09/18 10:21:09;;;;;;;1.23;0.60;;;;;;;;;;4894517;29;20380;-43
2022/09/18 10:23:37;;;;;;;1.20;0.70;;;;;;;;;;4895771;29;20952;-43
2022/09/18 10:26:04;;;;;;;0.70;0.67;;;;;;;;;;4898803;28;20184;-43
2022/09/18 10:28:30;;;;;;;0.73;0.70;;;;;;;;;;4897874;29;20176;-43
2022/09/18 10:30:59;;;;;;;0.63;0.63;;;;;;;;;;4894192;29;21130;-43
2022/09/18 10:33:31;;;;;;;1.10;0.80;;;;;;;;;;4895853;29;20733;-43
2022/09/18 10:36:24;;;;;;;0.73;0.63;;;;;;;;;;4901357;29;20183;-42
2022/09/18 10:38:51;;;;;;;0.73;0.70;;;;;;;;;;4909035;28;20798;-43
2022/09/18 10:41:28;;;;;;;1.80;0.90;;;;;;;;;;4896574;29;20204;-43
2022/09/18 10:43:58;;;;;;;2.00;0.77;;;;;;;;;;4897430;29;20176;-43
2022/09/18 10:46:29;;;;;;;1.80;0.70;;;;;;;;;;4905873;29;20328;-43
2022/09/18 10:48:57;;;;;;;0.80;0.80;;;;;;;;;;4906575;29;20187;-43
2022/09/18 10:51:28;;;;;;;1.20;0.70;;;;;;;;;;4902066;29;20199;-42
2022/09/18 10:54:12;;;;;;;1.13;0.60;;;;;;;;;;4900153;29;20175;-43
2022/09/18 10:56:38;;;;;;;0.70;0.67;;;;;;;;;;4897095;29;20228;-43
2022/09/18 10:59:25;;;;;;;0.83;0.73;;;;;;;;;;4893673;29;20528;-44
2022/09/18 11:01:55;;;;;;;1.47;0.80;;;;;;;;;;4894883;29;20188;-44
2022/09/18 11:04:22;;;;;;;2.20;0.90;;;;;;;;;;4890700;29;20179;-43
2022/09/18 11:06:48;;;;;;;0.87;0.73;;;;;;;;;;4898151;29;20176;-43
2022/09/18 11:09:17;;;;;;;1.13;0.77;;;;;;;;;;4897414;29;20792;-43
2022/09/18 11:11:44;;;;;;;1.30;0.80;;;;;;;;;;4897926;29;20852;-43
2022/09/18 11:14:17;;;;;;;1.97;1.10;;;;;;;;;;4899138;28;20998;-44
2022/09/18 11:16:45;;;;;;;0.93;0.90;;;;;;;;;;4896295;29;20187;-43
2022/09/18 11:19:14;;;;;;;0.80;0.80;;;;;;;;;;4898960;28;20210;-43
2022/09/18 11:21:44;;;;;;;0.87;0.80;;;;;;;;;;4892110;29;20808;-43
2022/09/18 11:24:16;;;;;;;0.90;0.80;;;;;;;;;;4896735;29;21145;-43
2022/09/18 11:26:48;;;;;;;1.10;0.70;;;;;;;;;;4902152;29;20183;-43
2022/09/18 11:29:38;;;;;;;0.60;0.60;;;;;;;;;;4900246;29;20191;-43
2022/09/18 11:32:24;;;;;;;0.53;0.50;;;;;;;;;;4897539;29;20953;-42
2022/09/18 11:34:52;;;;;;;1.60;0.63;;;;;;;;;;4898329;29;20924;-43
2022/09/18 11:37:32;;;;;;;0.70;0.60;;;;;;;;;;4901045;29;20307;-43
2022/09/18 11:40:00;;;;;;;0.73;0.53;;;;;;;;;;4899175;29;20268;-43
2022/09/18 11:42:28;;;;;;;0.70;0.70;;;;;;;;;;4900243;29;20936;-43
2022/09/18 11:45:05;;;;;;;1.60;0.57;;;;;;;;;;4898213;29;20172;-43
2022/09/18 11:47:39;;;;;;;0.83;0.60;;;;;;;;;;4900089;29;20188;-43
2022/09/18 11:50:10;;;;;;;0.70;0.60;;;;;;;;;;4902887;29;20176;-43
2022/09/18 11:52:38;;;;;;;1.17;0.63;;;;;;;;;;4897313;28;20180;-43
2022/09/18 11:55:08;;;;;;;1.70;0.70;;;;;;;;;;4895621;29;21041;-45
2022/09/18 11:57:37;;;;;;;1.93;0.60;;;;;;;;;;4897012;29;20963;-43
2022/09/18 12:00:04;;;;;;;1.67;0.80;;;;;;;;;;4898568;29;20176;-43
2022/09/18 12:02:43;;;;;;;0.60;0.60;;;;;;;;;;4897265;29;20238;-43
2022/09/18 12:05:28;;;;;;;0.60;0.60;;;;;;;;;;4894552;29;20219;-43
2022/09/18 12:07:55;;;;;;;0.87;0.70;;;;;;;;;;4892419;29;20179;-43
2022/09/18 12:10:26;;;;;;;1.03;0.70;;;;;;;;;;4894447;29;20180;-44
2022/09/18 12:12:56;;;;;;;2.13;1.17;;;;;;;;;;4897918;29;21042;-43
2022/09/18 12:15:27;;;;;;;0.60;0.60;;;;;;;;;;4892480;29;20271;-43
2022/09/18 12:18:13;;;;;;;0.70;0.70;;;;;;;;;;4893896;29;21464;-43
2022/09/18 12:20:46;;;;;;;0.67;0.60;;;;;;;;;;4901031;29;21031;-43
2022/09/18 12:23:15;;;;;;;0.80;0.80;;;;;;;;;;4900930;29;20180;-43
2022/09/18 12:25:50;;;;;;;0.80;0.80;;;;;;;;;;4898386;29;20180;-44
2022/09/18 12:28:36;;;;;;;0.60;0.60;;;;;;;;;;4897486;29;20176;-43
2022/09/18 12:31:13;;;;;;;1.07;0.70;;;;;;;;;;4894912;28;21356;-43
2022/09/18 12:33:44;;;;;;;0.50;0.50;;;;;;;;;;4897530;29;20176;-42
2022/09/18 12:36:48;;;;;;;1.13;0.80;;;;;;;;;;4900081;29;20176;-42
2022/09/18 12:39:20;;;;;;;0.60;0.60;;;;;;;;;;4929855;28;20789;-43
2022/09/18 12:41:52;;;;;;;0.80;0.73;;;;;;;;;;4927213;28;20186;-43
2022/09/18 12:44:37;;;;;;;2.87;0.70;;;;;;;;;;4911962;28;20992;-43
2022/09/18 12:47:03;;;;;;;0.70;0.70;;;;;;;;;;4889679;29;20191;-44
2022/09/18 12:49:48;;;;;;;0.60;0.60;;;;;;;;;;4897742;29;20176;-44
2022/09/18 12:52:33;;;;;;;0.90;0.77;;;;;;;;;;4902529;29;21067;-43
2022/09/18 12:55:17;;;;;;;0.60;0.60;;;;;;;;;;4893600;29;21091;-43
2022/09/18 12:57:55;;;;;;;0.83;0.80;;;;;;;;;;4898082;29;20204;-43
2022/09/18 13:00:22;;;;;;;0.87;0.80;;;;;;;;;;4892893;29;21475;-44
2022/09/18 13:02:52;;;;;;;1.07;0.97;;;;;;;;;;4892243;29;20332;-43
2022/09/18 13:05:22;;;;;;;0.60;0.60;;;;;;;;;;4888824;29;20402;-45
2022/09/18 13:07:57;;;;;;;0.77;0.70;;;;;;;;;;4890533;29;20181;-44
2022/09/18 13:10:28;;;;;;;0.80;0.60;;;;;;;;;;4892766;29;20210;-43
2022/09/18 13:13:00;;;;;;;0.83;0.70;;;;;;;;;;4897435;29;20696;-43
2022/09/18 13:15:35;;;;;;;0.80;0.80;;;;;;;;;;4888470;29;20610;-44
2022/09/18 13:18:20;;;;;;;0.70;0.70;;;;;;;;;;4896180;28;20278;-42
2022/09/18 13:20:46;;;;;;;1.37;0.70;;;;;;;;;;4893471;29;20509;-43
2022/09/18 13:23:22;;;;;;;1.40;0.80;;;;;;;;;;4892409;29;20180;-43
2022/09/18 13:25:50;;;;;;;1.40;0.80;;;;;;;;;;4892715;29;20184;-43
2022/09/18 13:28:18;;;;;;;2.40;0.70;;;;;;;;;;4894094;28;20767;-42
2022/09/18 13:30:45;;;;;;;0.83;0.73;;;;;;;;;;4896843;29;20291;-43
2022/09/18 13:33:24;;;;;;;2.03;0.80;;;;;;;;;;4894803;29;20578;-44
2022/09/18 13:35:57;;;;;;;1.10;0.80;;;;;;;;;;4892717;29;20195;-43
2022/09/18 13:38:27;;;;;;;0.87;0.70;;;;;;;;;;4896604;29;20203;-43
2022/09/18 13:40:59;;;;;;;0.87;0.60;;;;;;;;;;4897571;29;20206;-44
2022/09/18 13:43:28;;;;;;;0.70;0.70;;;;;;;;;;4899681;28;20176;-43
2022/09/18 13:45:55;;;;;;;0.87;0.73;;;;;;;;;;4892198;29;20610;-44
2022/09/18 13:48:24;;;;;;;0.70;0.70;;;;;;;;;;4893282;29;20585;-44
2022/09/18 13:50:53;;;;;;;1.07;0.80;;;;;;;;;;4897058;29;20180;-44
2022/09/18 13:53:45;;;;;;;0.60;0.60;;;;;;;;;;4895957;29;20826;-43
2022/09/18 13:56:12;;;;;;;2.40;0.80;;;;;;;;;;4893714;28;21157;-45
2022/09/18 13:58:48;;;;;;;1.80;0.70;;;;;;;;;;4889395;29;20878;-44
2022/09/18 14:01:33;;;;;;;0.90;0.80;;;;;;;;;;4892167;29;20263;-44
2022/09/18 14:03:59;;;;;;;0.70;0.70;;;;;;;;;;4894741;29;21170;-44
2022/09/18 14:06:35;;;;;;;1.30;0.87;;;;;;;;;;4896900;29;20327;-43
2022/09/18 14:09:02;;;;;;;0.90;0.67;;;;;;;;;;4892073;28;20184;-44
2022/09/18 14:11:28;;;;;;;0.70;0.70;;;;;;;;;;4890719;29;20605;-44
2022/09/18 14:13:55;;;;;;;0.70;0.70;;;;;;;;;;4892281;29;20242;-44
2022/09/18 14:16:22;;;;;;;1.63;0.97;;;;;;;;;;4894317;29;20186;-43
2022/09/18 14:18:48;;;;;;;1.40;0.80;;;;;;;;;;4894567;29;20211;-43
2022/09/18 14:21:17;;;;;;;0.70;0.70;;;;;;;;;;4891960;29;20275;-43
2022/09/18 14:23:46;;;;;;;0.80;0.80;;;;;;;;;;4893423;29;20299;-43
2022/09/18 14:26:37;;;;;;;2.50;1.00;;;;;;;;;;4892222;29;21070;-43
2022/09/18 14:29:04;;;;;;;1.07;0.80;;;;;;;;;;4888046;29;20349;-43
2022/09/18 14:31:34;;;;;;;2.03;0.83;;;;;;;;;;4892612;29;20184;-43
2022/09/18 14:34:06;;;;;;;1.00;0.90;;;;;;;;;;4896268;29;20967;-44
2022/09/18 14:36:45;;;;;;;0.70;0.70;;;;;;;;;;4900366;28;20180;-43
2022/09/18 14:39:23;;;;;;;0.70;0.70;;;;;;;;;;4885764;29;20227;-43
2022/09/18 14:41:50;;;;;;;2.10;0.90;;;;;;;;;;4888586;29;20180;-43
2022/09/18 14:44:16;;;;;;;0.60;0.60;;;;;;;;;;4882387;29;20180;-44
2022/09/18 14:46:56;;;;;;;1.20;0.80;;;;;;;;;;4884728;29;20189;-43
2022/09/18 14:49:26;;;;;;;0.87;0.60;;;;;;;;;;4886066;29;20184;-43
2022/09/18 14:51:52;;;;;;;0.87;0.80;;;;;;;;;;4886352;29;21029;-43
2022/09/18 14:54:21;;;;;;;1.60;0.77;;;;;;;;;;4881138;29;20193;-43
2022/09/18 14:56:48;;;;;;;1.00;0.90;;;;;;;;;;4885144;29;20191;-41
2022/09/18 14:59:16;;;;;;;0.73;0.73;;;;;;;;;;4880587;29;20208;-43